Wyanet, Illinois
Current Conditions -  °F | °C
As of 9:55 PM on Sunday 23 Nov 2014 (Local Time) from KVYS Reporting Station
Drizzle Drizzle  
Wind Chill: 47°   Ceiling: 300
Heat Index: 49°   Visibility: 1.7mi
Dew Point: 48°   Wind: 5mph
Humidity: 97%   Direction: 190°S
Pressure: 29.17"   Gusts: NA
Location:  41.37°N, 89.58°W
Report Text: KVYS 240355Z AUTO 19004KT 1 3/4SM DZ OVC003 10/09 A2917 RMK AO2 P0003 T00950091
Loading
Personal Weather Stations






























Interactive Weather Map New forecast layout! Learn more

10-Day Weather Forecast

Advertisements
Track Severe Weather on mobile